sensor_id;sensor_type;location;lat;lon;timestamp;P1;durP1;ratioP1;P2;durP2;ratioP2
73661;SDS011;61956;52.540;13.382;2023-04-01T00:01:44;2.88;;;1.13;;
73661;SDS011;61956;52.540;13.382;2023-04-01T00:04:13;1.03;;;0.43;;
73661;SDS011;61956;52.540;13.382;2023-04-01T00:06:42;1.25;;;0.30;;
73661;SDS011;61956;52.540;13.382;2023-04-01T00:09:15;1.45;;;0.55;;
73661;SDS011;61956;52.540;13.382;2023-04-01T00:11:44;2.92;;;0.98;;
73661;SDS011;61956;52.540;13.382;2023-04-01T00:14:13;2.47;;;0.75;;
73661;SDS011;61956;52.540;13.382;2023-04-01T00:16:43;1.63;;;0.30;;
73661;SDS011;61956;52.540;13.382;2023-04-01T00:19:13;1.63;;;0.50;;
73661;SDS011;61956;52.540;13.382;2023-04-01T00:21:42;0.95;;;0.28;;
73661;SDS011;61956;52.540;13.382;2023-04-01T00:24:12;1.20;;;0.57;;
73661;SDS011;61956;52.540;13.382;2023-04-01T00:26:44;1.33;;;0.40;;
73661;SDS011;61956;52.540;13.382;2023-04-01T00:29:14;1.83;;;0.40;;
73661;SDS011;61956;52.540;13.382;2023-04-01T00:31:43;0.45;;;0.10;;
73661;SDS011;61956;52.540;13.382;2023-04-01T00:34:13;2.05;;;0.68;;
73661;SDS011;61956;52.540;13.382;2023-04-01T00:36:43;3.28;;;0.22;;
73661;SDS011;61956;52.540;13.382;2023-04-01T00:39:14;0.55;;;0.20;;
73661;SDS011;61956;52.540;13.382;2023-04-01T00:41:44;1.33;;;0.10;;
73661;SDS011;61956;52.540;13.382;2023-04-01T00:44:19;0.00;;;0.00;;
73661;SDS011;61956;52.540;13.382;2023-04-01T00:46:51;1.15;;;0.20;;
73661;SDS011;61956;52.540;13.382;2023-04-01T00:49:21;0.40;;;0.10;;
73661;SDS011;61956;52.540;13.382;2023-04-01T00:51:55;2.40;;;0.70;;
73661;SDS011;61956;52.540;13.382;2023-04-01T00:54:29;0.30;;;0.20;;
73661;SDS011;61956;52.540;13.382;2023-04-01T00:57:02;1.38;;;0.30;;
73661;SDS011;61956;52.540;13.382;2023-04-01T00:59:39;3.00;;;0.45;;
73661;SDS011;61956;52.540;13.382;2023-04-01T01:02:15;1.40;;;0.40;;
73661;SDS011;61956;52.540;13.382;2023-04-01T01:04:44;0.88;;;0.30;;
73661;SDS011;61956;52.540;13.382;2023-04-01T01:07:17;1.33;;;0.40;;
73661;SDS011;61956;52.540;13.382;2023-04-01T01:10:02;0.57;;;0.20;;
73661;SDS011;61956;52.540;13.382;2023-04-01T01:12:39;0.45;;;0.20;;
73661;SDS011;61956;52.540;13.382;2023-04-01T01:15:16;0.90;;;0.20;;
73661;SDS011;61956;52.540;13.382;2023-04-01T01:17:55;0.80;;;0.22;;
73661;SDS011;61956;52.540;13.382;2023-04-01T01:27:08;1.15;;;0.10;;
73661;SDS011;61956;52.540;13.382;2023-04-01T01:29:47;1.15;;;0.38;;
73661;SDS011;61956;52.540;13.382;2023-04-01T01:33:04;0.45;;;0.15;;
73661;SDS011;61956;52.540;13.382;2023-04-01T01:35:58;1.23;;;0.20;;
73661;SDS011;61956;52.540;13.382;2023-04-01T01:38:35;1.60;;;0.13;;
73661;SDS011;61956;52.540;13.382;2023-04-01T01:41:06;1.10;;;0.30;;
73661;SDS011;61956;52.540;13.382;2023-04-01T01:43:38;2.67;;;0.40;;
73661;SDS011;61956;52.540;13.382;2023-04-01T01:46:16;2.03;;;0.35;;
73661;SDS011;61956;52.540;13.382;2023-04-01T01:48:51;0.63;;;0.20;;
73661;SDS011;61956;52.540;13.382;2023-04-01T01:51:26;1.60;;;0.17;;
73661;SDS011;61956;52.540;13.382;2023-04-01T01:53:56;0.77;;;0.28;;
73661;SDS011;61956;52.540;13.382;2023-04-01T01:56:27;0.55;;;0.15;;
73661;SDS011;61956;52.540;13.382;2023-04-01T01:58:59;0.43;;;0.13;;
73661;SDS011;61956;52.540;13.382;2023-04-01T02:01:35;4.53;;;0.60;;
73661;SDS011;61956;52.540;13.382;2023-04-01T02:04:13;1.58;;;0.50;;
73661;SDS011;61956;52.540;13.382;2023-04-01T02:06:47;1.23;;;0.20;;
73661;SDS011;61956;52.540;13.382;2023-04-01T02:09:24;0.10;;;0.00;;
73661;SDS011;61956;52.540;13.382;2023-04-01T02:11:56;2.50;;;0.40;;
73661;SDS011;61956;52.540;13.382;2023-04-01T02:14:35;1.80;;;0.30;;
73661;SDS011;61956;52.540;13.382;2023-04-01T02:17:12;1.27;;;0.60;;
73661;SDS011;61956;52.540;13.382;2023-04-01T02:19:46;1.50;;;0.50;;
73661;SDS011;61956;52.540;13.382;2023-04-01T02:22:26;3.50;;;0.85;;
73661;SDS011;61956;52.540;13.382;2023-04-01T02:25:01;0.88;;;0.20;;
73661;SDS011;61956;52.540;13.382;2023-04-01T02:27:39;2.67;;;0.40;;
73661;SDS011;61956;52.540;13.382;2023-04-01T02:30:12;1.75;;;0.32;;
73661;SDS011;61956;52.540;13.382;2023-04-01T02:32:44;4.03;;;0.65;;
73661;SDS011;61956;52.540;13.382;2023-04-01T02:35:16;0.68;;;0.30;;
73661;SDS011;61956;52.540;13.382;2023-04-01T02:37:49;3.35;;;0.38;;
73661;SDS011;61956;52.540;13.382;2023-04-01T02:40:21;2.33;;;0.40;;
73661;SDS011;61956;52.540;13.382;2023-04-01T02:42:50;4.18;;;0.75;;
73661;SDS011;61956;52.540;13.382;2023-04-01T02:45:20;1.38;;;0.30;;
73661;SDS011;61956;52.540;13.382;2023-04-01T02:47:49;1.02;;;0.40;;
73661;SDS011;61956;52.540;13.382;2023-04-01T02:50:19;4.22;;;0.20;;
73661;SDS011;61956;52.540;13.382;2023-04-01T02:52:51;4.10;;;0.60;;
73661;SDS011;61956;52.540;13.382;2023-04-01T02:55:20;1.10;;;0.25;;
73661;SDS011;61956;52.540;13.382;2023-04-01T02:57:49;1.33;;;0.52;;
73661;SDS011;61956;52.540;13.382;2023-04-01T03:00:19;1.17;;;0.30;;
73661;SDS011;61956;52.540;13.382;2023-04-01T03:02:48;1.13;;;0.20;;
73661;SDS011;61956;52.540;13.382;2023-04-01T03:05:17;1.17;;;0.10;;
73661;SDS011;61956;52.540;13.382;2023-04-01T03:07:47;0.77;;;0.20;;
73661;SDS011;61956;52.540;13.382;2023-04-01T03:10:19;1.20;;;0.22;;
73661;SDS011;61956;52.540;13.382;2023-04-01T03:12:48;0.60;;;0.20;;
73661;SDS011;61956;52.540;13.382;2023-04-01T03:15:18;1.45;;;0.50;;
73661;SDS011;61956;52.540;13.382;2023-04-01T03:17:47;0.47;;;0.10;;
73661;SDS011;61956;52.540;13.382;2023-04-01T03:20:17;0.30;;;0.10;;
73661;SDS011;61956;52.540;13.382;2023-04-01T03:22:46;2.90;;;0.80;;
73661;SDS011;61956;52.540;13.382;2023-04-01T03:25:15;2.22;;;0.20;;
73661;SDS011;61956;52.540;13.382;2023-04-01T03:27:47;6.00;;;0.85;;
73661;SDS011;61956;52.540;13.382;2023-04-01T03:30:17;2.17;;;0.30;;
73661;SDS011;61956;52.540;13.382;2023-04-01T03:32:49;0.95;;;0.20;;
73661;SDS011;61956;52.540;13.382;2023-04-01T03:35:19;0.90;;;0.30;;
73661;SDS011;61956;52.540;13.382;2023-04-01T03:37:48;7.70;;;0.35;;
73661;SDS011;61956;52.540;13.382;2023-04-01T03:40:22;8.10;;;1.05;;
73661;SDS011;61956;52.540;13.382;2023-04-01T03:42:53;3.40;;;0.50;;
73661;SDS011;61956;52.540;13.382;2023-04-01T03:45:22;1.50;;;0.45;;
73661;SDS011;61956;52.540;13.382;2023-04-01T03:47:51;0.45;;;0.15;;
73661;SDS011;61956;52.540;13.382;2023-04-01T03:50:21;1.25;;;0.40;;
73661;SDS011;61956;52.540;13.382;2023-04-01T03:52:50;0.85;;;0.63;;
73661;SDS011;61956;52.540;13.382;2023-04-01T03:55:22;0.90;;;0.20;;
73661;SDS011;61956;52.540;13.382;2023-04-01T03:57:51;0.60;;;0.17;;
73661;SDS011;61956;52.540;13.382;2023-04-01T04:00:21;1.15;;;0.20;;
73661;SDS011;61956;52.540;13.382;2023-04-01T04:02:54;1.42;;;0.30;;
73661;SDS011;61956;52.540;13.382;2023-04-01T04:05:29;2.15;;;0.73;;
73661;SDS011;61956;52.540;13.382;2023-04-01T04:07:59;3.60;;;0.20;;
73661;SDS011;61956;52.540;13.382;2023-04-01T04:10:33;1.88;;;0.47;;
73661;SDS011;61956;52.540;13.382;2023-04-01T04:13:02;2.13;;;0.43;;
73661;SDS011;61956;52.540;13.382;2023-04-01T04:15:36;0.90;;;0.38;;
73661;SDS011;61956;52.540;13.382;2023-04-01T04:18:06;1.95;;;0.30;;
73661;SDS011;61956;52.540;13.382;2023-04-01T04:20:36;1.33;;;0.30;;
73661;SDS011;61956;52.540;13.382;2023-04-01T04:23:05;1.35;;;0.47;;
73661;SDS011;61956;52.540;13.382;2023-04-01T04:25:38;2.30;;;0.63;;
73661;SDS011;61956;52.540;13.382;2023-04-01T04:28:08;0.80;;;0.20;;
73661;SDS011;61956;52.540;13.382;2023-04-01T04:30:37;0.52;;;0.10;;
73661;SDS011;61956;52.540;13.382;2023-04-01T04:33:06;1.60;;;0.20;;
73661;SDS011;61956;52.540;13.382;2023-04-01T04:35:35;2.15;;;0.75;;
73661;SDS011;61956;52.540;13.382;2023-04-01T04:38:05;2.10;;;0.60;;
73661;SDS011;61956;52.540;13.382;2023-04-01T04:40:38;1.45;;;0.47;;
73661;SDS011;61956;52.540;13.382;2023-04-01T04:43:10;0.73;;;0.20;;
73661;SDS011;61956;52.540;13.382;2023-04-01T04:45:41;1.53;;;0.50;;
73661;SDS011;61956;52.540;13.382;2023-04-01T04:48:12;1.88;;;0.52;;
73661;SDS011;61956;52.540;13.382;2023-04-01T04:50:46;1.40;;;0.50;;
73661;SDS011;61956;52.540;13.382;2023-04-01T04:53:18;1.63;;;0.50;;
73661;SDS011;61956;52.540;13.382;2023-04-01T04:55:50;1.55;;;0.43;;
73661;SDS011;61956;52.540;13.382;2023-04-01T04:58:46;1.23;;;0.40;;
73661;SDS011;61956;52.540;13.382;2023-04-01T05:01:21;2.45;;;0.30;;
73661;SDS011;61956;52.540;13.382;2023-04-01T05:03:50;0.55;;;0.15;;
73661;SDS011;61956;52.540;13.382;2023-04-01T05:06:20;2.38;;;0.38;;
73661;SDS011;61956;52.540;13.382;2023-04-01T05:08:51;1.42;;;0.38;;
73661;SDS011;61956;52.540;13.382;2023-04-01T05:11:24;0.30;;;0.10;;
73661;SDS011;61956;52.540;13.382;2023-04-01T05:13:54;0.40;;;0.10;;
73661;SDS011;61956;52.540;13.382;2023-04-01T05:16:24;2.22;;;0.77;;
73661;SDS011;61956;52.540;13.382;2023-04-01T05:18:53;1.55;;;0.45;;
73661;SDS011;61956;52.540;13.382;2023-04-01T05:21:23;1.27;;;0.20;;
73661;SDS011;61956;52.540;13.382;2023-04-01T05:23:54;4.23;;;1.30;;
73661;SDS011;61956;52.540;13.382;2023-04-01T05:26:27;4.22;;;0.98;;
73661;SDS011;61956;52.540;13.382;2023-04-01T05:28:58;0.90;;;0.30;;
73661;SDS011;61956;52.540;13.382;2023-04-01T05:31:29;2.35;;;0.47;;
73661;SDS011;61956;52.540;13.382;2023-04-01T05:33:59;1.95;;;0.52;;
73661;SDS011;61956;52.540;13.382;2023-04-01T05:36:29;3.80;;;0.97;;
73661;SDS011;61956;52.540;13.382;2023-04-01T05:38:58;4.05;;;0.90;;
73661;SDS011;61956;52.540;13.382;2023-04-01T05:41:30;4.35;;;1.15;;
73661;SDS011;61956;52.540;13.382;2023-04-01T05:44:03;0.73;;;0.10;;
73661;SDS011;61956;52.540;13.382;2023-04-01T05:46:39;0.88;;;0.30;;
73661;SDS011;61956;52.540;13.382;2023-04-01T05:49:17;1.40;;;0.60;;
73661;SDS011;61956;52.540;13.382;2023-04-01T05:51:47;1.45;;;0.52;;
73661;SDS011;61956;52.540;13.382;2023-04-01T05:54:17;1.13;;;0.17;;
73661;SDS011;61956;52.540;13.382;2023-04-01T05:56:49;1.90;;;0.57;;
73661;SDS011;61956;52.540;13.382;2023-04-01T05:59:19;2.40;;;0.75;;
73661;SDS011;61956;52.540;13.382;2023-04-01T06:01:49;2.53;;;0.40;;
73661;SDS011;61956;52.540;13.382;2023-04-01T06:04:19;2.15;;;0.50;;
73661;SDS011;61956;52.540;13.382;2023-04-01T06:06:49;1.20;;;0.35;;
73661;SDS011;61956;52.540;13.382;2023-04-01T06:09:19;1.80;;;0.47;;
73661;SDS011;61956;52.540;13.382;2023-04-01T06:15:04;1.23;;;0.40;;
73661;SDS011;61956;52.540;13.382;2023-04-01T06:17:52;2.40;;;0.30;;
73661;SDS011;61956;52.540;13.382;2023-04-01T06:20:48;2.53;;;0.75;;
73661;SDS011;61956;52.540;13.382;2023-04-01T06:23:35;2.42;;;0.77;;
73661;SDS011;61956;52.540;13.382;2023-04-01T06:26:26;1.40;;;0.40;;
73661;SDS011;61956;52.540;13.382;2023-04-01T06:32:20;3.33;;;0.80;;
73661;SDS011;61956;52.540;13.382;2023-04-01T06:38:10;2.97;;;0.82;;
73661;SDS011;61956;52.540;13.382;2023-04-01T06:41:17;1.15;;;0.40;;
73661;SDS011;61956;52.540;13.382;2023-04-01T06:44:18;3.43;;;0.57;;
73661;SDS011;61956;52.540;13.382;2023-04-01T06:47:25;1.95;;;0.80;;
73661;SDS011;61956;52.540;13.382;2023-04-01T06:50:43;2.42;;;0.73;;
73661;SDS011;61956;52.540;13.382;2023-04-01T06:54:00;4.07;;;1.73;;
73661;SDS011;61956;52.540;13.382;2023-04-01T06:56:57;2.72;;;1.02;;
73661;SDS011;61956;52.540;13.382;2023-04-01T06:59:36;1.10;;;0.50;;
73661;SDS011;61956;52.540;13.382;2023-04-01T07:02:12;5.30;;;1.17;;
73661;SDS011;61956;52.540;13.382;2023-04-01T07:04:56;3.10;;;0.68;;
73661;SDS011;61956;52.540;13.382;2023-04-01T07:07:30;3.00;;;0.98;;
73661;SDS011;61956;52.540;13.382;2023-04-01T07:10:10;3.78;;;0.90;;
73661;SDS011;61956;52.540;13.382;2023-04-01T07:12:54;1.87;;;0.80;;
73661;SDS011;61956;52.540;13.382;2023-04-01T07:16:03;1.95;;;0.75;;
73661;SDS011;61956;52.540;13.382;2023-04-01T07:18:43;7.85;;;0.80;;
73661;SDS011;61956;52.540;13.382;2023-04-01T07:21:22;2.92;;;0.60;;
73661;SDS011;61956;52.540;13.382;2023-04-01T07:23:59;4.65;;;0.90;;
73661;SDS011;61956;52.540;13.382;2023-04-01T07:26:39;2.10;;;0.50;;
73661;SDS011;61956;52.540;13.382;2023-04-01T07:29:18;3.95;;;0.85;;
73661;SDS011;61956;52.540;13.382;2023-04-01T07:37:50;1.80;;;0.55;;
73661;SDS011;61956;52.540;13.382;2023-04-01T07:40:37;0.63;;;0.20;;
73661;SDS011;61956;52.540;13.382;2023-04-01T07:43:27;2.47;;;0.88;;
73661;SDS011;61956;52.540;13.382;2023-04-01T07:46:33;1.63;;;0.43;;
73661;SDS011;61956;52.540;13.382;2023-04-01T07:49:25;1.13;;;0.32;;
73661;SDS011;61956;52.540;13.382;2023-04-01T07:52:33;1.00;;;0.28;;
73661;SDS011;61956;52.540;13.382;2023-04-01T07:55:21;3.63;;;0.60;;
73661;SDS011;61956;52.540;13.382;2023-04-01T07:58:01;4.38;;;0.65;;
73661;SDS011;61956;52.540;13.382;2023-04-01T08:00:46;5.00;;;0.57;;
73661;SDS011;61956;52.540;13.382;2023-04-01T08:03:35;1.92;;;0.40;;
73661;SDS011;61956;52.540;13.382;2023-04-01T08:06:36;0.95;;;0.25;;
73661;SDS011;61956;52.540;13.382;2023-04-01T08:09:23;1.27;;;0.40;;
73661;SDS011;61956;52.540;13.382;2023-04-01T08:12:29;0.80;;;0.25;;
73661;SDS011;61956;52.540;13.382;2023-04-01T08:16:04;3.00;;;0.85;;
73661;SDS011;61956;52.540;13.382;2023-04-01T08:18:51;1.50;;;0.32;;
73661;SDS011;61956;52.540;13.382;2023-04-01T08:21:41;1.40;;;0.40;;
73661;SDS011;61956;52.540;13.382;2023-04-01T08:24:17;2.80;;;0.70;;
73661;SDS011;61956;52.540;13.382;2023-04-01T08:26:58;2.03;;;0.50;;
73661;SDS011;61956;52.540;13.382;2023-04-01T08:29:36;2.00;;;0.40;;
73661;SDS011;61956;52.540;13.382;2023-04-01T08:32:12;1.23;;;0.30;;
73661;SDS011;61956;52.540;13.382;2023-04-01T08:34:51;1.73;;;0.50;;
73661;SDS011;61956;52.540;13.382;2023-04-01T08:37:40;1.77;;;0.43;;
73661;SDS011;61956;52.540;13.382;2023-04-01T08:40:30;2.40;;;0.50;;
73661;SDS011;61956;52.540;13.382;2023-04-01T08:43:23;2.38;;;0.95;;
73661;SDS011;61956;52.540;13.382;2023-04-01T08:46:19;3.53;;;0.90;;
73661;SDS011;61956;52.540;13.382;2023-04-01T08:49:35;2.30;;;0.80;;
73661;SDS011;61956;52.540;13.382;2023-04-01T08:53:03;3.50;;;0.70;;
73661;SDS011;61956;52.540;13.382;2023-04-01T08:55:47;3.60;;;1.17;;
73661;SDS011;61956;52.540;13.382;2023-04-01T08:58:41;3.10;;;0.98;;
73661;SDS011;61956;52.540;13.382;2023-04-01T09:01:55;4.22;;;1.52;;
73661;SDS011;61956;52.540;13.382;2023-04-01T09:05:07;5.53;;;1.83;;
73661;SDS011;61956;52.540;13.382;2023-04-01T09:08:10;5.83;;;1.70;;
73661;SDS011;61956;52.540;13.382;2023-04-01T09:11:00;7.47;;;2.97;;
73661;SDS011;61956;52.540;13.382;2023-04-01T09:20:52;4.93;;;2.17;;
73661;SDS011;61956;52.540;13.382;2023-04-01T09:27:02;5.63;;;1.95;;
73661;SDS011;61956;52.540;13.382;2023-04-01T09:29:50;7.20;;;2.90;;
73661;SDS011;61956;52.540;13.382;2023-04-01T09:32:54;7.10;;;2.80;;
73661;SDS011;61956;52.540;13.382;2023-04-01T09:35:59;5.78;;;2.63;;
73661;SDS011;61956;52.540;13.382;2023-04-01T09:38:44;6.27;;;2.97;;
73661;SDS011;61956;52.540;13.382;2023-04-01T09:41:32;5.47;;;2.15;;
73661;SDS011;61956;52.540;13.382;2023-04-01T09:44:29;4.90;;;1.85;;
73661;SDS011;61956;52.540;13.382;2023-04-01T09:47:16;4.65;;;2.03;;
73661;SDS011;61956;52.540;13.382;2023-04-01T09:50:14;4.18;;;1.27;;
73661;SDS011;61956;52.540;13.382;2023-04-01T09:53:05;3.70;;;1.47;;
73661;SDS011;61956;52.540;13.382;2023-04-01T09:56:03;4.80;;;1.60;;
73661;SDS011;61956;52.540;13.382;2023-04-01T09:59:18;6.05;;;2.90;;
73661;SDS011;61956;52.540;13.382;2023-04-01T10:06:03;6.03;;;1.90;;
73661;SDS011;61956;52.540;13.382;2023-04-01T10:13:11;5.00;;;1.70;;
73661;SDS011;61956;52.540;13.382;2023-04-01T10:16:28;4.90;;;2.17;;
73661;SDS011;61956;52.540;13.382;2023-04-01T10:19:43;4.30;;;1.60;;
73661;SDS011;61956;52.540;13.382;2023-04-01T10:29:45;5.90;;;2.33;;
73661;SDS011;61956;52.540;13.382;2023-04-01T10:46:54;5.40;;;1.83;;
73661;SDS011;61956;52.540;13.382;2023-04-01T10:53:28;5.35;;;1.83;;
73661;SDS011;61956;52.540;13.382;2023-04-01T10:56:42;4.93;;;1.55;;
73661;SDS011;61956;52.540;13.382;2023-04-01T11:03:10;5.57;;;1.67;;
73661;SDS011;61956;52.540;13.382;2023-04-01T11:06:48;8.07;;;1.38;;
73661;SDS011;61956;52.540;13.382;2023-04-01T11:13:38;5.00;;;1.95;;
73661;SDS011;61956;52.540;13.382;2023-04-01T11:17:08;5.10;;;2.47;;
73661;SDS011;61956;52.540;13.382;2023-04-01T11:20:18;4.15;;;1.40;;
73661;SDS011;61956;52.540;13.382;2023-04-01T11:23:40;6.15;;;2.08;;
73661;SDS011;61956;52.540;13.382;2023-04-01T11:26:27;7.70;;;2.72;;
73661;SDS011;61956;52.540;13.382;2023-04-01T11:32:31;5.27;;;2.10;;
73661;SDS011;61956;52.540;13.382;2023-04-01T11:35:31;5.15;;;1.50;;
73661;SDS011;61956;52.540;13.382;2023-04-01T11:38:19;5.68;;;2.03;;
73661;SDS011;61956;52.540;13.382;2023-04-01T11:41:31;6.35;;;3.17;;
73661;SDS011;61956;52.540;13.382;2023-04-01T11:44:46;6.70;;;2.28;;
73661;SDS011;61956;52.540;13.382;2023-04-01T11:47:44;4.83;;;2.10;;
73661;SDS011;61956;52.540;13.382;2023-04-01T11:50:35;6.15;;;2.90;;
73661;SDS011;61956;52.540;13.382;2023-04-01T11:53:27;6.65;;;2.70;;
73661;SDS011;61956;52.540;13.382;2023-04-01T11:56:13;5.50;;;2.35;;
73661;SDS011;61956;52.540;13.382;2023-04-01T11:59:06;4.13;;;1.70;;
73661;SDS011;61956;52.540;13.382;2023-04-01T12:02:09;5.37;;;2.57;;
73661;SDS011;61956;52.540;13.382;2023-04-01T12:04:54;5.25;;;2.58;;
73661;SDS011;61956;52.540;13.382;2023-04-01T12:07:42;5.57;;;1.98;;
73661;SDS011;61956;52.540;13.382;2023-04-01T12:10:33;4.90;;;2.15;;
73661;SDS011;61956;52.540;13.382;2023-04-01T12:13:24;5.85;;;2.58;;
73661;SDS011;61956;52.540;13.382;2023-04-01T12:16:09;6.23;;;3.03;;
73661;SDS011;61956;52.540;13.382;2023-04-01T12:18:53;6.15;;;2.70;;
73661;SDS011;61956;52.540;13.382;2023-04-01T12:21:32;6.45;;;2.67;;
73661;SDS011;61956;52.540;13.382;2023-04-01T12:27:27;6.22;;;2.33;;
73661;SDS011;61956;52.540;13.382;2023-04-01T12:30:18;5.37;;;2.07;;
73661;SDS011;61956;52.540;13.382;2023-04-01T12:36:06;5.70;;;2.25;;
73661;SDS011;61956;52.540;13.382;2023-04-01T12:39:03;4.75;;;2.67;;
73661;SDS011;61956;52.540;13.382;2023-04-01T12:42:04;5.30;;;1.40;;
73661;SDS011;61956;52.540;13.382;2023-04-01T12:44:54;6.73;;;2.63;;
73661;SDS011;61956;52.540;13.382;2023-04-01T12:57:31;5.93;;;2.72;;
73661;SDS011;61956;52.540;13.382;2023-04-01T13:00:25;4.43;;;1.77;;
73661;SDS011;61956;52.540;13.382;2023-04-01T13:06:32;7.88;;;3.17;;
73661;SDS011;61956;52.540;13.382;2023-04-01T13:09:26;7.55;;;3.00;;
73661;SDS011;61956;52.540;13.382;2023-04-01T13:12:21;6.88;;;2.90;;
73661;SDS011;61956;52.540;13.382;2023-04-01T13:15:10;6.90;;;2.70;;
73661;SDS011;61956;52.540;13.382;2023-04-01T13:17:58;7.13;;;3.30;;
73661;SDS011;61956;52.540;13.382;2023-04-01T13:20:43;5.45;;;2.83;;
73661;SDS011;61956;52.540;13.382;2023-04-01T13:23:28;5.40;;;2.25;;
73661;SDS011;61956;52.540;13.382;2023-04-01T13:26:17;8.98;;;2.75;;
73661;SDS011;61956;52.540;13.382;2023-04-01T13:28:58;6.87;;;3.00;;
73661;SDS011;61956;52.540;13.382;2023-04-01T13:31:41;5.03;;;1.75;;
73661;SDS011;61956;52.540;13.382;2023-04-01T13:34:27;5.63;;;2.53;;
73661;SDS011;61956;52.540;13.382;2023-04-01T13:37:18;4.38;;;1.90;;
73661;SDS011;61956;52.540;13.382;2023-04-01T13:40:21;6.22;;;2.40;;
73661;SDS011;61956;52.540;13.382;2023-04-01T13:43:07;5.30;;;1.97;;
73661;SDS011;61956;52.540;13.382;2023-04-01T13:45:53;3.78;;;1.52;;
73661;SDS011;61956;52.540;13.382;2023-04-01T13:51:52;6.20;;;2.33;;
73661;SDS011;61956;52.540;13.382;2023-04-01T13:54:43;6.53;;;2.47;;
73661;SDS011;61956;52.540;13.382;2023-04-01T13:57:55;6.17;;;3.10;;
73661;SDS011;61956;52.540;13.382;2023-04-01T14:00:55;3.67;;;1.25;;
73661;SDS011;61956;52.540;13.382;2023-04-01T14:03:39;5.40;;;1.48;;
73661;SDS011;61956;52.540;13.382;2023-04-01T14:06:37;5.47;;;1.70;;
73661;SDS011;61956;52.540;13.382;2023-04-01T14:09:39;4.07;;;1.63;;
73661;SDS011;61956;52.540;13.382;2023-04-01T14:12:28;6.57;;;2.43;;
73661;SDS011;61956;52.540;13.382;2023-04-01T14:18:32;3.92;;;1.35;;
73661;SDS011;61956;52.540;13.382;2023-04-01T14:21:21;4.63;;;1.88;;
73661;SDS011;61956;52.540;13.382;2023-04-01T14:27:19;2.57;;;1.10;;
73661;SDS011;61956;52.540;13.382;2023-04-01T14:30:09;3.20;;;1.40;;
73661;SDS011;61956;52.540;13.382;2023-04-01T14:33:12;2.50;;;0.93;;
73661;SDS011;61956;52.540;13.382;2023-04-01T14:36:06;3.08;;;1.08;;
73661;SDS011;61956;52.540;13.382;2023-04-01T14:39:12;2.03;;;0.90;;
73661;SDS011;61956;52.540;13.382;2023-04-01T14:42:03;2.17;;;0.73;;
73661;SDS011;61956;52.540;13.382;2023-04-01T14:48:14;3.80;;;1.10;;
73661;SDS011;61956;52.540;13.382;2023-04-01T14:50:54;3.35;;;1.38;;
73661;SDS011;61956;52.540;13.382;2023-04-01T14:53:33;2.10;;;0.60;;
73661;SDS011;61956;52.540;13.382;2023-04-01T14:56:11;5.57;;;1.33;;
73661;SDS011;61956;52.540;13.382;2023-04-01T14:58:46;2.35;;;0.70;;
73661;SDS011;61956;52.540;13.382;2023-04-01T15:01:29;3.13;;;0.90;;
73661;SDS011;61956;52.540;13.382;2023-04-01T15:04:17;3.85;;;1.30;;
73661;SDS011;61956;52.540;13.382;2023-04-01T15:13:52;2.50;;;1.17;;
73661;SDS011;61956;52.540;13.382;2023-04-01T15:16:49;2.63;;;0.70;;
73661;SDS011;61956;52.540;13.382;2023-04-01T15:19:38;3.00;;;0.80;;
73661;SDS011;61956;52.540;13.382;2023-04-01T15:22:40;4.05;;;1.55;;
73661;SDS011;61956;52.540;13.382;2023-04-01T15:25:35;2.73;;;0.97;;
73661;SDS011;61956;52.540;13.382;2023-04-01T15:28:20;4.28;;;1.38;;
73661;SDS011;61956;52.540;13.382;2023-04-01T15:31:04;4.05;;;1.25;;
73661;SDS011;61956;52.540;13.382;2023-04-01T15:33:56;2.90;;;1.35;;
73661;SDS011;61956;52.540;13.382;2023-04-01T15:36:56;4.38;;;1.63;;
73661;SDS011;61956;52.540;13.382;2023-04-01T15:39:38;3.50;;;1.63;;
73661;SDS011;61956;52.540;13.382;2023-04-01T15:42:31;4.45;;;1.40;;
73661;SDS011;61956;52.540;13.382;2023-04-01T15:45:25;3.63;;;1.25;;
73661;SDS011;61956;52.540;13.382;2023-04-01T15:48:16;2.13;;;0.75;;
73661;SDS011;61956;52.540;13.382;2023-04-01T15:51:15;2.70;;;0.63;;
73661;SDS011;61956;52.540;13.382;2023-04-01T15:54:06;4.20;;;1.10;;
73661;SDS011;61956;52.540;13.382;2023-04-01T15:57:25;3.30;;;1.45;;
73661;SDS011;61956;52.540;13.382;2023-04-01T16:00:10;2.60;;;1.20;;
73661;SDS011;61956;52.540;13.382;2023-04-01T16:02:53;2.72;;;1.00;;
73661;SDS011;61956;52.540;13.382;2023-04-01T16:05:55;3.47;;;1.08;;
73661;SDS011;61956;52.540;13.382;2023-04-01T16:08:59;6.93;;;0.77;;
73661;SDS011;61956;52.540;13.382;2023-04-01T16:11:44;6.93;;;1.27;;
73661;SDS011;61956;52.540;13.382;2023-04-01T16:14:28;4.95;;;1.92;;
73661;SDS011;61956;52.540;13.382;2023-04-01T16:17:15;2.65;;;0.93;;
73661;SDS011;61956;52.540;13.382;2023-04-01T16:20:02;5.18;;;1.77;;
73661;SDS011;61956;52.540;13.382;2023-04-01T16:22:49;3.73;;;1.33;;
73661;SDS011;61956;52.540;13.382;2023-04-01T16:25:31;1.73;;;0.45;;
73661;SDS011;61956;52.540;13.382;2023-04-01T16:28:13;2.67;;;0.85;;
73661;SDS011;61956;52.540;13.382;2023-04-01T16:30:55;3.30;;;1.27;;
73661;SDS011;61956;52.540;13.382;2023-04-01T16:33:34;1.88;;;0.47;;
73661;SDS011;61956;52.540;13.382;2023-04-01T16:36:22;2.83;;;0.83;;
73661;SDS011;61956;52.540;13.382;2023-04-01T16:42:07;1.73;;;0.57;;
73661;SDS011;61956;52.540;13.382;2023-04-01T16:44:50;4.53;;;0.80;;
73661;SDS011;61956;52.540;13.382;2023-04-01T16:47:29;2.13;;;0.75;;
73661;SDS011;61956;52.540;13.382;2023-04-01T16:50:06;9.47;;;1.43;;
73661;SDS011;61956;52.540;13.382;2023-04-01T16:52:57;3.13;;;0.98;;
73661;SDS011;61956;52.540;13.382;2023-04-01T16:55:42;2.60;;;0.75;;
73661;SDS011;61956;52.540;13.382;2023-04-01T16:58:20;2.42;;;0.80;;
73661;SDS011;61956;52.540;13.382;2023-04-01T17:00:58;1.10;;;0.52;;
73661;SDS011;61956;52.540;13.382;2023-04-01T17:03:36;0.97;;;0.30;;
73661;SDS011;61956;52.540;13.382;2023-04-01T17:06:20;1.77;;;0.52;;
73661;SDS011;61956;52.540;13.382;2023-04-01T17:12:07;2.00;;;0.80;;
73661;SDS011;61956;52.540;13.382;2023-04-01T17:14:49;2.80;;;0.90;;
73661;SDS011;61956;52.540;13.382;2023-04-01T17:17:35;2.57;;;0.70;;
73661;SDS011;61956;52.540;13.382;2023-04-01T17:20:20;3.65;;;1.15;;
73661;SDS011;61956;52.540;13.382;2023-04-01T17:23:07;3.60;;;1.83;;
73661;SDS011;61956;52.540;13.382;2023-04-01T17:28:53;2.65;;;0.80;;
73661;SDS011;61956;52.540;13.382;2023-04-01T17:31:42;2.17;;;0.63;;
73661;SDS011;61956;52.540;13.382;2023-04-01T17:34:23;2.38;;;0.95;;
73661;SDS011;61956;52.540;13.382;2023-04-01T17:37:12;2.38;;;0.73;;
73661;SDS011;61956;52.540;13.382;2023-04-01T17:40:11;3.13;;;1.10;;
73661;SDS011;61956;52.540;13.382;2023-04-01T17:43:02;3.63;;;1.30;;
73661;SDS011;61956;52.540;13.382;2023-04-01T17:45:52;3.30;;;0.70;;
73661;SDS011;61956;52.540;13.382;2023-04-01T17:48:25;2.40;;;1.13;;
73661;SDS011;61956;52.540;13.382;2023-04-01T17:51:21;8.70;;;1.60;;
73661;SDS011;61956;52.540;13.382;2023-04-01T17:54:05;1.65;;;0.70;;
73661;SDS011;61956;52.540;13.382;2023-04-01T17:56:57;3.17;;;1.13;;
73661;SDS011;61956;52.540;13.382;2023-04-01T17:59:53;2.70;;;1.00;;
73661;SDS011;61956;52.540;13.382;2023-04-01T18:02:42;3.58;;;0.82;;
73661;SDS011;61956;52.540;13.382;2023-04-01T18:05:34;1.80;;;0.95;;
73661;SDS011;61956;52.540;13.382;2023-04-01T18:08:25;2.33;;;0.60;;
73661;SDS011;61956;52.540;13.382;2023-04-01T18:11:14;4.47;;;1.52;;
73661;SDS011;61956;52.540;13.382;2023-04-01T18:14:04;2.43;;;0.70;;
73661;SDS011;61956;52.540;13.382;2023-04-01T18:17:04;2.60;;;0.73;;